sensor_id;sensor_type;location;lat;lon;timestamp;pressure;altitude;pressure_sealevel;temperature;humidity
60240;BME280;46102;39.012;-7.064;2023-06-22T00:00:11;98545.41;;;19.42;66.28
60240;BME280;46102;39.012;-7.064;2023-06-22T00:02:13;98547.44;;;19.45;66.44
60240;BME280;46102;39.012;-7.064;2023-06-22T00:04:13;98543.44;;;19.42;66.50
60240;BME280;46102;39.012;-7.064;2023-06-22T00:06:14;98547.00;;;19.43;66.76
60240;BME280;46102;39.012;-7.064;2023-06-22T00:08:16;98541.00;;;19.41;66.77
60240;BME280;46102;39.012;-7.064;2023-06-22T00:10:17;98533.44;;;19.38;66.96
60240;BME280;46102;39.012;-7.064;2023-06-22T00:12:17;98538.63;;;19.39;67.12
60240;BME280;46102;39.012;-7.064;2023-06-22T00:14:18;98542.97;;;19.37;67.22
60240;BME280;46102;39.012;-7.064;2023-06-22T00:16:19;98541.69;;;19.30;67.31
60240;BME280;46102;39.012;-7.064;2023-06-22T00:18:20;98542.03;;;19.25;67.50
60240;BME280;46102;39.012;-7.064;2023-06-22T00:20:21;98547.94;;;19.24;67.54
60240;BME280;46102;39.012;-7.064;2023-06-22T00:22:23;98553.88;;;19.22;67.58
60240;BME280;46102;39.012;-7.064;2023-06-22T00:24:29;98547.88;;;19.20;67.67
60240;BME280;46102;39.012;-7.064;2023-06-22T00:26:29;98548.22;;;19.15;67.70
60240;BME280;46102;39.012;-7.064;2023-06-22T00:28:30;98547.41;;;19.14;67.75
60240;BME280;46102;39.012;-7.064;2023-06-22T00:30:31;98546.63;;;19.14;67.63
60240;BME280;46102;39.012;-7.064;2023-06-22T00:32:32;98549.34;;;19.10;67.62
60240;BME280;46102;39.012;-7.064;2023-06-22T00:34:33;98541.75;;;19.07;67.65
60240;BME280;46102;39.012;-7.064;2023-06-22T00:36:34;98548.81;;;19.01;67.79
60240;BME280;46102;39.012;-7.064;2023-06-22T00:38:35;98549.16;;;19.00;67.85
60240;BME280;46102;39.012;-7.064;2023-06-22T00:40:40;98552.63;;;18.93;68.28
60240;BME280;46102;39.012;-7.064;2023-06-22T00:42:41;98546.66;;;18.91;68.01
60240;BME280;46102;39.012;-7.064;2023-06-22T00:44:42;98551.84;;;18.92;67.91
60240;BME280;46102;39.012;-7.064;2023-06-22T00:46:43;98551.41;;;18.90;67.89
60240;BME280;46102;39.012;-7.064;2023-06-22T00:48:44;98551.38;;;18.87;67.94
60240;BME280;46102;39.012;-7.064;2023-06-22T00:50:45;98551.38;;;18.87;67.90
60240;BME280;46102;39.012;-7.064;2023-06-22T00:52:48;98552.53;;;18.86;67.79
60240;BME280;46102;39.012;-7.064;2023-06-22T00:54:49;98550.19;;;18.88;67.64
60240;BME280;46102;39.012;-7.064;2023-06-22T00:56:53;98560.06;;;18.85;67.60
60240;BME280;46102;39.012;-7.064;2023-06-22T00:58:55;98553.66;;;18.81;67.68
60240;BME280;46102;39.012;-7.064;2023-06-22T01:00:58;98567.09;;;18.79;67.70
60240;BME280;46102;39.012;-7.064;2023-06-22T01:03:02;98563.88;;;18.77;67.65
60240;BME280;46102;39.012;-7.064;2023-06-22T01:05:03;98563.00;;;18.73;67.79
60240;BME280;46102;39.012;-7.064;2023-06-22T01:07:30;98553.44;;;18.70;67.70
60240;BME280;46102;39.012;-7.064;2023-06-22T01:09:44;98562.19;;;18.72;67.49
60240;BME280;46102;39.012;-7.064;2023-06-22T01:11:52;98560.19;;;18.69;67.19
60240;BME280;46102;39.012;-7.064;2023-06-22T01:14:14;98556.97;;;18.67;67.08
60240;BME280;46102;39.012;-7.064;2023-06-22T01:16:31;98553.31;;;18.63;66.57
60240;BME280;46102;39.012;-7.064;2023-06-22T01:18:35;98561.56;;;18.60;66.44
60240;BME280;46102;39.012;-7.064;2023-06-22T01:20:37;98562.28;;;18.53;66.58
60240;BME280;46102;39.012;-7.064;2023-06-22T01:25:25;98563.81;;;18.50;66.52
60240;BME280;46102;39.012;-7.064;2023-06-22T01:30:02;98569.34;;;18.50;66.31
60240;BME280;46102;39.012;-7.064;2023-06-22T01:32:06;98565.41;;;18.51;66.20
60240;BME280;46102;39.012;-7.064;2023-06-22T01:34:10;98571.66;;;18.45;66.36
60240;BME280;46102;39.012;-7.064;2023-06-22T01:36:12;98563.69;;;18.43;66.45
60240;BME280;46102;39.012;-7.064;2023-06-22T01:38:14;98561.69;;;18.44;66.30
60240;BME280;46102;39.012;-7.064;2023-06-22T01:40:15;98560.03;;;18.39;66.35
60240;BME280;46102;39.012;-7.064;2023-06-22T01:42:17;98562.00;;;18.39;66.49
60240;BME280;46102;39.012;-7.064;2023-06-22T01:44:19;98566.34;;;18.36;66.56
60240;BME280;46102;39.012;-7.064;2023-06-22T01:46:20;98562.38;;;18.37;66.62
60240;BME280;46102;39.012;-7.064;2023-06-22T01:48:22;98559.97;;;18.36;66.82
60240;BME280;46102;39.012;-7.064;2023-06-22T01:50:24;98561.13;;;18.35;67.09
60240;BME280;46102;39.012;-7.064;2023-06-22T01:52:24;98559.03;;;18.28;67.27
60240;BME280;46102;39.012;-7.064;2023-06-22T01:54:25;98566.56;;;18.27;67.42
60240;BME280;46102;39.012;-7.064;2023-06-22T01:56:26;98561.09;;;18.31;67.31
60240;BME280;46102;39.012;-7.064;2023-06-22T01:58:29;98561.97;;;18.35;67.54
60240;BME280;46102;39.012;-7.064;2023-06-22T02:00:37;98569.34;;;18.27;67.83
60240;BME280;46102;39.012;-7.064;2023-06-22T02:04:44;98555.69;;;18.19;68.04
60240;BME280;46102;39.012;-7.064;2023-06-22T02:06:50;98560.09;;;18.20;68.34
60240;BME280;46102;39.012;-7.064;2023-06-22T02:08:59;98555.81;;;18.26;68.39
60240;BME280;46102;39.012;-7.064;2023-06-22T02:11:02;98556.88;;;18.18;68.66
60240;BME280;46102;39.012;-7.064;2023-06-22T02:13:06;98562.44;;;18.18;68.67
60240;BME280;46102;39.012;-7.064;2023-06-22T02:15:08;98558.03;;;18.17;68.90
60240;BME280;46102;39.012;-7.064;2023-06-22T02:17:10;98559.94;;;18.13;69.03
60240;BME280;46102;39.012;-7.064;2023-06-22T02:19:10;98562.34;;;18.14;69.09
60240;BME280;46102;39.012;-7.064;2023-06-22T02:21:11;98567.84;;;18.10;69.31
60240;BME280;46102;39.012;-7.064;2023-06-22T02:23:12;98563.75;;;18.04;69.60
60240;BME280;46102;39.012;-7.064;2023-06-22T02:25:13;98558.56;;;18.03;69.83
60240;BME280;46102;39.012;-7.064;2023-06-22T02:27:15;98562.44;;;17.98;70.07
60240;BME280;46102;39.012;-7.064;2023-06-22T02:29:15;98564.84;;;18.00;70.17
60240;BME280;46102;39.012;-7.064;2023-06-22T02:31:17;98565.06;;;17.91;70.04
60240;BME280;46102;39.012;-7.064;2023-06-22T02:33:18;98569.09;;;17.94;70.15
60240;BME280;46102;39.012;-7.064;2023-06-22T02:35:20;98569.38;;;17.88;70.14
60240;BME280;46102;39.012;-7.064;2023-06-22T02:37:22;98564.63;;;17.89;70.23
60240;BME280;46102;39.012;-7.064;2023-06-22T02:39:25;98562.59;;;17.86;70.44
60240;BME280;46102;39.012;-7.064;2023-06-22T02:41:27;98567.41;;;17.89;70.29
60240;BME280;46102;39.012;-7.064;2023-06-22T02:43:30;98567.59;;;17.80;70.71
60240;BME280;46102;39.012;-7.064;2023-06-22T02:45:31;98571.41;;;17.72;70.90
60240;BME280;46102;39.012;-7.064;2023-06-22T02:47:32;98568.09;;;17.66;70.92
60240;BME280;46102;39.012;-7.064;2023-06-22T02:49:33;98573.28;;;17.68;71.15
60240;BME280;46102;39.012;-7.064;2023-06-22T02:51:34;98576.22;;;17.75;71.11
60240;BME280;46102;39.012;-7.064;2023-06-22T02:53:35;98569.28;;;17.65;71.03
60240;BME280;46102;39.012;-7.064;2023-06-22T02:55:36;98580.72;;;17.64;71.38
60240;BME280;46102;39.012;-7.064;2023-06-22T02:57:36;98577.06;;;17.60;71.43
60240;BME280;46102;39.012;-7.064;2023-06-22T02:59:37;98574.00;;;17.65;71.47
60240;BME280;46102;39.012;-7.064;2023-06-22T03:01:43;98567.94;;;17.59;71.69
60240;BME280;46102;39.012;-7.064;2023-06-22T03:03:53;98579.69;;;17.53;71.76
60240;BME280;46102;39.012;-7.064;2023-06-22T03:05:54;98582.81;;;17.51;72.00
60240;BME280;46102;39.012;-7.064;2023-06-22T03:07:57;98588.66;;;17.46;72.40
60240;BME280;46102;39.012;-7.064;2023-06-22T03:09:58;98581.13;;;17.46;72.28
60240;BME280;46102;39.012;-7.064;2023-06-22T03:11:59;98581.50;;;17.45;72.59
60240;BME280;46102;39.012;-7.064;2023-06-22T03:14:08;98588.22;;;17.44;72.63
60240;BME280;46102;39.012;-7.064;2023-06-22T03:16:09;98588.66;;;17.46;72.57
60240;BME280;46102;39.012;-7.064;2023-06-22T03:18:11;98585.34;;;17.40;72.83
60240;BME280;46102;39.012;-7.064;2023-06-22T03:20:12;98584.66;;;17.43;72.99
60240;BME280;46102;39.012;-7.064;2023-06-22T03:22:13;98582.50;;;17.37;72.87
60240;BME280;46102;39.012;-7.064;2023-06-22T03:24:15;98583.16;;;17.30;73.24
60240;BME280;46102;39.012;-7.064;2023-06-22T03:26:17;98587.97;;;17.33;73.47
60240;BME280;46102;39.012;-7.064;2023-06-22T03:28:18;98579.94;;;17.28;73.54
60240;BME280;46102;39.012;-7.064;2023-06-22T03:30:19;98587.47;;;17.27;73.64
60240;BME280;46102;39.012;-7.064;2023-06-22T03:32:20;98574.50;;;17.32;73.65
60240;BME280;46102;39.012;-7.064;2023-06-22T03:34:21;98571.91;;;17.23;74.03
60240;BME280;46102;39.012;-7.064;2023-06-22T03:36:26;98564.28;;;17.20;74.09
60240;BME280;46102;39.012;-7.064;2023-06-22T03:38:26;98582.84;;;17.16;74.34
60240;BME280;46102;39.012;-7.064;2023-06-22T03:40:30;98578.44;;;17.15;74.38
60240;BME280;46102;39.012;-7.064;2023-06-22T03:42:31;98573.25;;;17.13;74.67
60240;BME280;46102;39.012;-7.064;2023-06-22T03:44:31;98586.03;;;17.18;74.60
60240;BME280;46102;39.012;-7.064;2023-06-22T03:46:32;98583.88;;;17.11;74.62
60240;BME280;46102;39.012;-7.064;2023-06-22T03:48:33;98579.06;;;17.08;74.92
60240;BME280;46102;39.012;-7.064;2023-06-22T03:50:34;98579.06;;;17.08;75.02
60240;BME280;46102;39.012;-7.064;2023-06-22T03:52:35;98582.66;;;17.09;75.02
60240;BME280;46102;39.012;-7.064;2023-06-22T03:54:36;98586.59;;;17.08;75.44
60240;BME280;46102;39.012;-7.064;2023-06-22T03:56:37;98585.97;;;16.98;75.60
60240;BME280;46102;39.012;-7.064;2023-06-22T03:58:38;98585.44;;;16.93;76.09
60240;BME280;46102;39.012;-7.064;2023-06-22T04:00:43;98585.25;;;16.85;76.52
60240;BME280;46102;39.012;-7.064;2023-06-22T04:02:44;98586.00;;;16.82;76.71
60240;BME280;46102;39.012;-7.064;2023-06-22T04:04:44;98598.59;;;16.80;76.81
60240;BME280;46102;39.012;-7.064;2023-06-22T04:06:45;98590.16;;;16.76;77.00
60240;BME280;46102;39.012;-7.064;2023-06-22T04:08:46;98588.91;;;16.74;77.11
60240;BME280;46102;39.012;-7.064;2023-06-22T04:10:51;98596.88;;;16.75;76.84
60240;BME280;46102;39.012;-7.064;2023-06-22T04:12:52;98598.91;;;16.78;77.00
60240;BME280;46102;39.012;-7.064;2023-06-22T04:14:52;98595.00;;;16.79;77.05
60240;BME280;46102;39.012;-7.064;2023-06-22T04:16:53;98601.81;;;16.82;76.84
60240;BME280;46102;39.012;-7.064;2023-06-22T04:18:54;98610.66;;;16.88;76.46
60240;BME280;46102;39.012;-7.064;2023-06-22T04:20:55;98604.03;;;16.92;76.60
60240;BME280;46102;39.012;-7.064;2023-06-22T04:22:55;98611.09;;;16.90;76.52
60240;BME280;46102;39.012;-7.064;2023-06-22T04:24:56;98612.91;;;16.82;76.88
60240;BME280;46102;39.012;-7.064;2023-06-22T04:26:57;98616.81;;;16.81;76.62
60240;BME280;46102;39.012;-7.064;2023-06-22T04:28:58;98623.59;;;16.83;76.39
60240;BME280;46102;39.012;-7.064;2023-06-22T04:30:58;98623.41;;;16.92;76.64
60240;BME280;46102;39.012;-7.064;2023-06-22T04:33:02;98622.44;;;16.84;76.84
60240;BME280;46102;39.012;-7.064;2023-06-22T04:35:03;98616.91;;;16.84;77.04
60240;BME280;46102;39.012;-7.064;2023-06-22T04:37:07;98623.16;;;16.81;77.24
60240;BME280;46102;39.012;-7.064;2023-06-22T04:39:10;98624.31;;;16.80;77.16
60240;BME280;46102;39.012;-7.064;2023-06-22T04:41:11;98624.31;;;16.80;77.11
60240;BME280;46102;39.012;-7.064;2023-06-22T04:43:23;98627.41;;;16.79;77.41
60240;BME280;46102;39.012;-7.064;2023-06-22T04:45:24;98623.38;;;16.76;77.52
60240;BME280;46102;39.012;-7.064;2023-06-22T04:47:25;98630.44;;;16.74;77.51
60240;BME280;46102;39.012;-7.064;2023-06-22T04:49:26;98630.09;;;16.75;77.40
60240;BME280;46102;39.012;-7.064;2023-06-22T04:51:33;98630.31;;;16.82;77.47
60240;BME280;46102;39.012;-7.064;2023-06-22T04:53:33;98628.00;;;16.84;77.42
60240;BME280;46102;39.012;-7.064;2023-06-22T04:55:34;98636.06;;;16.77;77.35
60240;BME280;46102;39.012;-7.064;2023-06-22T04:57:38;98635.72;;;16.79;77.54
60240;BME280;46102;39.012;-7.064;2023-06-22T04:59:40;98634.59;;;16.80;77.57
60240;BME280;46102;39.012;-7.064;2023-06-22T05:01:41;98635.66;;;16.75;77.69
60240;BME280;46102;39.012;-7.064;2023-06-22T05:03:42;98631.88;;;16.68;77.92
60240;BME280;46102;39.012;-7.064;2023-06-22T05:05:44;98632.22;;;16.66;78.04
60240;BME280;46102;39.012;-7.064;2023-06-22T05:07:46;98631.06;;;16.67;78.16
60240;BME280;46102;39.012;-7.064;2023-06-22T05:09:48;98633.03;;;16.67;78.01
60240;BME280;46102;39.012;-7.064;2023-06-22T05:11:49;98634.63;;;16.68;78.13
60240;BME280;46102;39.012;-7.064;2023-06-22T05:13:50;98640.09;;;16.64;78.27
60240;BME280;46102;39.012;-7.064;2023-06-22T05:15:50;98642.88;;;16.64;78.39
60240;BME280;46102;39.012;-7.064;2023-06-22T05:17:51;98643.75;;;16.68;78.34
60240;BME280;46102;39.012;-7.064;2023-06-22T05:19:52;98651.59;;;16.66;78.61
60240;BME280;46102;39.012;-7.064;2023-06-22T05:21:53;98653.56;;;16.65;78.58
60240;BME280;46102;39.012;-7.064;2023-06-22T05:23:54;98663.06;;;16.64;78.80
60240;BME280;46102;39.012;-7.064;2023-06-22T05:25:55;98650.91;;;16.69;78.40
60240;BME280;46102;39.012;-7.064;2023-06-22T05:27:58;98657.81;;;16.75;78.31
60240;BME280;46102;39.012;-7.064;2023-06-22T05:29:58;98662.38;;;16.83;77.92
60240;BME280;46102;39.012;-7.064;2023-06-22T05:31:59;98667.22;;;16.87;77.95
60240;BME280;46102;39.012;-7.064;2023-06-22T05:34:00;98668.72;;;16.84;77.79
60240;BME280;46102;39.012;-7.064;2023-06-22T05:36:01;98672.31;;;16.84;77.84
60240;BME280;46102;39.012;-7.064;2023-06-22T05:38:01;98671.69;;;16.91;77.66
60240;BME280;46102;39.012;-7.064;2023-06-22T05:40:03;98681.00;;;16.99;77.13
60240;BME280;46102;39.012;-7.064;2023-06-22T05:42:07;98687.88;;;16.89;77.62
60240;BME280;46102;39.012;-7.064;2023-06-22T05:44:08;98696.00;;;16.82;78.03
60240;BME280;46102;39.012;-7.064;2023-06-22T05:46:09;98704.19;;;16.78;78.23
60240;BME280;46102;39.012;-7.064;2023-06-22T05:48:09;98712.63;;;16.82;78.17
60240;BME280;46102;39.012;-7.064;2023-06-22T05:50:10;98702.78;;;16.84;78.17
60240;BME280;46102;39.012;-7.064;2023-06-22T05:52:11;98706.09;;;16.90;77.70
60240;BME280;46102;39.012;-7.064;2023-06-22T05:54:12;98702.34;;;16.98;77.59
60240;BME280;46102;39.012;-7.064;2023-06-22T05:56:14;98701.09;;;16.96;77.93
60240;BME280;46102;39.012;-7.064;2023-06-22T05:58:15;98713.72;;;16.93;78.01
60240;BME280;46102;39.012;-7.064;2023-06-22T06:00:16;98717.75;;;16.96;78.03
60240;BME280;46102;39.012;-7.064;2023-06-22T06:02:17;98712.66;;;16.98;77.97
60240;BME280;46102;39.012;-7.064;2023-06-22T06:04:18;98707.09;;;16.98;78.05
60240;BME280;46102;39.012;-7.064;2023-06-22T06:06:19;98709.88;;;16.98;77.87
60240;BME280;46102;39.012;-7.064;2023-06-22T06:08:21;98715.22;;;17.06;77.58
60240;BME280;46102;39.012;-7.064;2023-06-22T06:10:22;98718.19;;;17.14;77.46
60240;BME280;46102;39.012;-7.064;2023-06-22T06:12:23;98721.59;;;17.23;77.06
60240;BME280;46102;39.012;-7.064;2023-06-22T06:14:24;98721.84;;;17.34;76.89
60240;BME280;46102;39.012;-7.064;2023-06-22T06:16:25;98717.75;;;17.43;76.19
60240;BME280;46102;39.012;-7.064;2023-06-22T06:18:25;98714.41;;;17.54;75.80
60240;BME280;46102;39.012;-7.064;2023-06-22T06:20:26;98726.50;;;17.61;75.30
60240;BME280;46102;39.012;-7.064;2023-06-22T06:22:29;98722.34;;;17.71;74.88
60240;BME280;46102;39.012;-7.064;2023-06-22T06:24:30;98729.16;;;17.74;74.86
60240;BME280;46102;39.012;-7.064;2023-06-22T06:26:31;98737.63;;;17.81;74.87
60240;BME280;46102;39.012;-7.064;2023-06-22T06:28:33;98733.63;;;17.94;74.27
60240;BME280;46102;39.012;-7.064;2023-06-22T06:30:34;98731.09;;;18.05;73.95
60240;BME280;46102;39.012;-7.064;2023-06-22T06:32:37;98735.44;;;18.22;72.89
60240;BME280;46102;39.012;-7.064;2023-06-22T06:34:38;98734.69;;;18.25;72.86
60240;BME280;46102;39.012;-7.064;2023-06-22T06:36:39;98735.88;;;18.24;72.82
60240;BME280;46102;39.012;-7.064;2023-06-22T06:38:40;98742.72;;;18.30;73.03
60240;BME280;46102;39.012;-7.064;2023-06-22T06:40:40;98745.66;;;18.37;72.44
60240;BME280;46102;39.012;-7.064;2023-06-22T06:42:43;98752.53;;;18.43;72.22
60240;BME280;46102;39.012;-7.064;2023-06-22T06:44:45;98744.28;;;18.47;71.93
60240;BME280;46102;39.012;-7.064;2023-06-22T06:46:46;98754.34;;;18.55;71.70
60240;BME280;46102;39.012;-7.064;2023-06-22T06:48:47;98758.59;;;18.68;71.19
60240;BME280;46102;39.012;-7.064;2023-06-22T06:50:47;98757.75;;;18.84;70.67
60240;BME280;46102;39.012;-7.064;2023-06-22T06:52:48;98763.28;;;19.03;70.21
60240;BME280;46102;39.012;-7.064;2023-06-22T06:54:50;98761.13;;;19.16;69.46
60240;BME280;46102;39.012;-7.064;2023-06-22T06:56:52;98761.38;;;19.30;68.74
60240;BME280;46102;39.012;-7.064;2023-06-22T06:58:53;98765.16;;;19.42;68.26
60240;BME280;46102;39.012;-7.064;2023-06-22T07:00:54;98766.91;;;19.50;67.96
60240;BME280;46102;39.012;-7.064;2023-06-22T07:02:55;98760.63;;;19.56;67.74
60240;BME280;46102;39.012;-7.064;2023-06-22T07:04:56;98760.81;;;19.67;67.37
60240;BME280;46102;39.012;-7.064;2023-06-22T07:06:58;98768.59;;;19.81;66.98
60240;BME280;46102;39.012;-7.064;2023-06-22T07:08:59;98775.56;;;19.94;66.09
60240;BME280;46102;39.012;-7.064;2023-06-22T07:11:01;98769.31;;;20.01;65.61
60240;BME280;46102;39.012;-7.064;2023-06-22T07:13:01;98779.44;;;20.13;65.31
60240;BME280;46102;39.012;-7.064;2023-06-22T07:15:04;98779.16;;;20.22;64.66
60240;BME280;46102;39.012;-7.064;2023-06-22T07:17:06;98775.72;;;20.32;64.37
60240;BME280;46102;39.012;-7.064;2023-06-22T07:19:07;98784.69;;;20.48;63.59
60240;BME280;46102;39.012;-7.064;2023-06-22T07:21:08;98786.88;;;20.62;63.01
60240;BME280;46102;39.012;-7.064;2023-06-22T07:23:08;98786.66;;;20.74;62.84
60240;BME280;46102;39.012;-7.064;2023-06-22T07:25:09;98784.88;;;20.93;61.36
60240;BME280;46102;39.012;-7.064;2023-06-22T07:27:10;98774.34;;;21.13;61.19
60240;BME280;46102;39.012;-7.064;2023-06-22T07:29:12;98784.94;;;21.37;60.43
60240;BME280;46102;39.012;-7.064;2023-06-22T07:31:13;98777.56;;;21.56;59.53
60240;BME280;46102;39.012;-7.064;2023-06-22T07:33:14;98776.44;;;21.64;59.15
60240;BME280;46102;39.012;-7.064;2023-06-22T07:35:14;98775.28;;;21.69;58.66
60240;BME280;46102;39.012;-7.064;2023-06-22T07:37:17;98787.31;;;21.76;58.85
60240;BME280;46102;39.012;-7.064;2023-06-22T07:39:18;98789.44;;;21.94;57.73
60240;BME280;46102;39.012;-7.064;2023-06-22T07:41:19;98780.31;;;22.00;57.38
60240;BME280;46102;39.012;-7.064;2023-06-22T07:43:20;98783.19;;;22.11;57.07
60240;BME280;46102;39.012;-7.064;2023-06-22T07:45:21;98779.69;;;22.21;56.44
60240;BME280;46102;39.012;-7.064;2023-06-22T07:47:22;98780.84;;;22.20;56.43
60240;BME280;46102;39.012;-7.064;2023-06-22T07:49:27;98789.63;;;22.19;56.49
60240;BME280;46102;39.012;-7.064;2023-06-22T07:51:28;98788.09;;;22.29;56.46
60240;BME280;46102;39.012;-7.064;2023-06-22T07:53:28;98788.16;;;22.39;55.95
60240;BME280;46102;39.012;-7.064;2023-06-22T07:55:29;98793.88;;;22.61;55.31
60240;BME280;46102;39.012;-7.064;2023-06-22T07:57:30;98798.31;;;22.76;54.81
60240;BME280;46102;39.012;-7.064;2023-06-22T07:59:34;98797.94;;;22.78;54.89
60240;BME280;46102;39.012;-7.064;2023-06-22T08:01:35;98793.19;;;22.93;53.89
60240;BME280;46102;39.012;-7.064;2023-06-22T08:03:36;98795.69;;;23.16;53.71
60240;BME280;46102;39.012;-7.064;2023-06-22T08:05:36;98804.53;;;23.28;52.71
60240;BME280;46102;39.012;-7.064;2023-06-22T08:07:37;98803.34;;;23.47;52.77
60240;BME280;46102;39.012;-7.064;2023-06-22T08:09:46;98798.56;;;23.69;52.26
60240;BME280;46102;39.012;-7.064;2023-06-22T08:11:47;98800.19;;;23.88;51.44
60240;BME280;46102;39.012;-7.064;2023-06-22T08:13:49;98801.38;;;23.91;51.07
60240;BME280;46102;39.012;-7.064;2023-06-22T08:15:50;98798.19;;;23.82;51.18
60240;BME280;46102;39.012;-7.064;2023-06-22T08:17:51;98803.00;;;23.88;51.14
60240;BME280;46102;39.012;-7.064;2023-06-22T08:19:52;98801.38;;;24.02;51.49
60240;BME280;46102;39.012;-7.064;2023-06-22T08:21:53;98799.38;;;24.27;50.75
60240;BME280;46102;39.012;-7.064;2023-06-22T08:23:54;98796.91;;;24.47;49.62
60240;BME280;46102;39.012;-7.064;2023-06-22T08:25:55;98802.88;;;24.67;49.12
60240;BME280;46102;39.012;-7.064;2023-06-22T08:27:56;98804.38;;;24.93;48.39
60240;BME280;46102;39.012;-7.064;2023-06-22T08:29:57;98797.84;;;25.18;47.05
60240;BME280;46102;39.012;-7.064;2023-06-22T08:31:59;98802.66;;;25.18;47.18
60240;BME280;46102;39.012;-7.064;2023-06-22T08:34:00;98797.81;;;25.25;46.28
60240;BME280;46102;39.012;-7.064;2023-06-22T08:36:01;98806.91;;;25.47;45.99
60240;BME280;46102;39.012;-7.064;2023-06-22T08:38:01;98809.66;;;25.58;45.15
60240;BME280;46102;39.012;-7.064;2023-06-22T08:40:04;98808.66;;;25.83;44.97
60240;BME280;46102;39.012;-7.064;2023-06-22T08:42:09;98813.66;;;26.09;44.06
60240;BME280;46102;39.012;-7.064;2023-06-22T08:44:09;98815.66;;;26.12;43.84
60240;BME280;46102;39.012;-7.064;2023-06-22T08:46:10;98803.97;;;26.14;43.46
60240;BME280;46102;39.012;-7.064;2023-06-22T08:48:11;98820.44;;;26.15;43.47
60240;BME280;46102;39.012;-7.064;2023-06-22T08:50:12;98808.72;;;26.21;43.62
60240;BME280;46102;39.012;-7.064;2023-06-22T08:52:13;98820.78;;;26.21;43.63
60240;BME280;46102;39.012;-7.064;2023-06-22T08:54:14;98815.88;;;26.32;43.74
60240;BME280;46102;39.012;-7.064;2023-06-22T08:56:15;98813.66;;;26.51;43.34
60240;BME280;46102;39.012;-7.064;2023-06-22T08:58:16;98811.06;;;26.71;42.87
60240;BME280;46102;39.012;-7.064;2023-06-22T09:00:17;98814.28;;;26.69;42.41
60240;BME280;46102;39.012;-7.064;2023-06-22T09:02:20;98815.94;;;26.63;42.88
60240;BME280;46102;39.012;-7.064;2023-06-22T09:04:21;98821.16;;;26.65;42.29
60240;BME280;46102;39.012;-7.064;2023-06-22T09:06:24;98822.59;;;26.80;42.29
60240;BME280;46102;39.012;-7.064;2023-06-22T09:08:25;98817.75;;;26.81;41.49
60240;BME280;46102;39.012;-7.064;2023-06-22T09:10:26;98816.78;;;26.94;41.35
60240;BME280;46102;39.012;-7.064;2023-06-22T09:12:27;98831.03;;;26.80;41.05
60240;BME280;46102;39.012;-7.064;2023-06-22T09:14:30;98831.34;;;26.89;41.00
60240;BME280;46102;39.012;-7.064;2023-06-22T09:16:31;98837.09;;;26.78;41.53
60240;BME280;46102;39.012;-7.064;2023-06-22T09:18:33;98826.69;;;26.72;41.74
60240;BME280;46102;39.012;-7.064;2023-06-22T09:20:34;98825.28;;;26.91;41.56
60240;BME280;46102;39.012;-7.064;2023-06-22T09:22:35;98828.88;;;27.26;41.04
60240;BME280;46102;39.012;-7.064;2023-06-22T09:24:36;98826.44;;;27.55;40.70
60240;BME280;46102;39.012;-7.064;2023-06-22T09:26:37;98830.47;;;27.81;40.08
60240;BME280;46102;39.012;-7.064;2023-06-22T09:28:38;98828.22;;;27.96;39.55
60240;BME280;46102;39.012;-7.064;2023-06-22T09:30:38;98828.81;;;28.11;38.72
60240;BME280;46102;39.012;-7.064;2023-06-22T09:32:39;98826.81;;;28.31;39.01
60240;BME280;46102;39.012;-7.064;2023-06-22T09:34:40;98825.28;;;28.50;37.67
60240;BME280;46102;39.012;-7.064;2023-06-22T09:36:41;98828.47;;;28.52;37.10
60240;BME280;46102;39.012;-7.064;2023-06-22T09:38:42;98825.91;;;28.14;37.51
60240;BME280;46102;39.012;-7.064;2023-06-22T09:40:43;98826.34;;;27.89;37.93
60240;BME280;46102;39.012;-7.064;2023-06-22T09:42:43;98829.84;;;27.97;38.21
60240;BME280;46102;39.012;-7.064;2023-06-22T09:44:44;98827.19;;;28.10;38.11
60240;BME280;46102;39.012;-7.064;2023-06-22T09:46:45;98831.31;;;28.29;37.95
60240;BME280;46102;39.012;-7.064;2023-06-22T09:48:46;98830.38;;;28.59;37.78
60240;BME280;46102;39.012;-7.064;2023-06-22T09:50:46;98828.19;;;28.86;36.23
60240;BME280;46102;39.012;-7.064;2023-06-22T09:52:47;98831.25;;;28.76;36.36
60240;BME280;46102;39.012;-7.064;2023-06-22T09:54:51;98826.44;;;28.53;36.42
60240;BME280;46102;39.012;-7.064;2023-06-22T09:56:51;98826.44;;;28.53;37.10
60240;BME280;46102;39.012;-7.064;2023-06-22T09:58:52;98826.38;;;28.56;36.88
60240;BME280;46102;39.012;-7.064;2023-06-22T10:00:53;98832.69;;;28.64;36.36
60240;BME280;46102;39.012;-7.064;2023-06-22T10:02:54;98827.91;;;28.81;36.10
60240;BME280;46102;39.012;-7.064;2023-06-22T10:04:56;98829.13;;;28.80;35.52
60240;BME280;46102;39.012;-7.064;2023-06-22T10:06:57;98822.69;;;28.59;35.45
60240;BME280;46102;39.012;-7.064;2023-06-22T10:08:57;98832.03;;;28.76;35.69
60240;BME280;46102;39.012;-7.064;2023-06-22T10:10:58;98824.94;;;28.68;35.78
60240;BME280;46102;39.012;-7.064;2023-06-22T10:13:09;98830.16;;;28.70;35.40
60240;BME280;46102;39.012;-7.064;2023-06-22T10:15:14;98831.31;;;28.72;35.74
60240;BME280;46102;39.012;-7.064;2023-06-22T10:17:15;98831.38;;;28.69;35.42
60240;BME280;46102;39.012;-7.064;2023-06-22T10:19:15;98832.03;;;28.76;34.89
60240;BME280;46102;39.012;-7.064;2023-06-22T10:21:16;98827.97;;;28.77;35.00
60240;BME280;46102;39.012;-7.064;2023-06-22T10:23:18;98825.03;;;28.64;35.29
60240;BME280;46102;39.012;-7.064;2023-06-22T10:25:19;98823.28;;;28.71;35.18
60240;BME280;46102;39.012;-7.064;2023-06-22T10:27:19;98827.03;;;29.04;34.40
60240;BME280;46102;39.012;-7.064;2023-06-22T10:29:20;98822.63;;;29.03;34.84
60240;BME280;46102;39.012;-7.064;2023-06-22T10:31:21;98817.06;;;28.99;34.41
60240;BME280;46102;39.012;-7.064;2023-06-22T10:33:22;98815.69;;;28.88;34.62
60240;BME280;46102;39.012;-7.064;2023-06-22T10:35:23;98815.31;;;29.05;34.33
60240;BME280;46102;39.012;-7.064;2023-06-22T10:37:23;98814.97;;;29.40;34.18
60240;BME280;46102;39.012;-7.064;2023-06-22T10:39:32;98819.50;;;29.54;34.01
60240;BME280;46102;39.012;-7.064;2023-06-22T10:41:37;98820.03;;;29.48;33.74
60240;BME280;46102;39.012;-7.064;2023-06-22T10:43:38;98817.31;;;29.61;33.16